createdAt,value
2023-07-11T00:00:10.789Z,39.97
2023-07-11T00:01:10.852Z,40.00
2023-07-11T00:02:10.984Z,39.99
2023-07-11T00:03:11.025Z,39.97
2023-07-11T00:04:11.011Z,39.98
2023-07-11T00:05:11.010Z,40.01
2023-07-11T00:06:11.049Z,40.00
2023-07-11T00:07:11.093Z,40.01
2023-07-11T00:08:11.198Z,40.01
2023-07-11T00:09:11.182Z,40.01
2023-07-11T00:10:11.229Z,40.02
2023-07-11T00:11:11.262Z,40.05
2023-07-11T00:12:11.306Z,40.06
2023-07-11T00:13:11.293Z,40.08
2023-07-11T00:14:11.367Z,40.04
2023-07-11T00:15:11.287Z,40.04
2023-07-11T00:16:11.475Z,40.03
2023-07-11T00:17:11.291Z,40.05
2023-07-11T00:18:11.267Z,40.02
2023-07-11T00:19:11.255Z,40.02
2023-07-11T00:20:11.250Z,40.03
2023-07-11T00:21:11.235Z,40.00
2023-07-11T00:22:11.234Z,40.03
2023-07-11T00:23:11.222Z,40.03
2023-07-11T00:24:11.217Z,40.03
2023-07-11T00:25:11.211Z,40.04
2023-07-11T00:26:11.236Z,40.03
2023-07-11T00:27:11.286Z,40.02
2023-07-11T00:28:11.319Z,40.06
2023-07-11T00:29:11.374Z,40.06
2023-07-11T00:30:11.460Z,40.05
2023-07-11T00:31:11.602Z,40.07
2023-07-11T00:32:11.501Z,40.05
2023-07-11T00:33:11.551Z,40.05
2023-07-11T00:34:11.634Z,40.05
2023-07-11T00:35:11.647Z,40.06
2023-07-11T00:36:11.676Z,40.09
2023-07-11T00:37:11.728Z,40.08
2023-07-11T00:38:11.789Z,40.07
2023-07-11T00:39:11.825Z,40.06
2023-07-11T00:40:11.863Z,40.05
2023-07-11T00:41:11.899Z,40.05
2023-07-11T00:42:11.954Z,40.05
2023-07-11T00:43:11.998Z,40.04
2023-07-11T00:44:12.050Z,40.05
2023-07-11T00:45:12.099Z,40.04
2023-07-11T00:46:12.308Z,40.08
2023-07-11T00:47:12.211Z,40.05
2023-07-11T00:48:12.241Z,40.05
2023-07-11T00:49:12.291Z,40.06
2023-07-11T00:50:12.342Z,40.05
2023-07-11T00:51:12.374Z,40.07
2023-07-11T00:52:12.432Z,40.07
2023-07-11T00:53:12.477Z,40.09
2023-07-11T00:54:12.524Z,40.08
2023-07-11T00:55:12.567Z,40.08
2023-07-11T00:56:12.625Z,40.06
2023-07-11T00:57:12.665Z,40.09
2023-07-11T00:58:12.727Z,40.05
2023-07-11T00:59:12.774Z,40.09
2023-07-11T01:00:12.827Z,40.14
2023-07-11T01:01:12.925Z,40.09
2023-07-11T01:02:12.926Z,40.09
2023-07-11T01:03:13.098Z,40.09
2023-07-11T01:04:13.104Z,40.06
2023-07-11T01:05:13.085Z,40.07
2023-07-11T01:06:13.141Z,40.07
2023-07-11T01:07:13.190Z,40.09
2023-07-11T01:08:13.240Z,40.09
2023-07-11T01:09:13.284Z,40.11
2023-07-11T01:10:13.335Z,40.07
2023-07-11T01:11:13.389Z,40.11
2023-07-11T01:12:13.444Z,40.09
2023-07-11T01:13:13.507Z,40.11
2023-07-11T01:14:13.638Z,40.08
2023-07-11T01:15:13.608Z,40.07
2023-07-11T01:16:13.678Z,40.08
2023-07-11T01:17:13.709Z,40.05
2023-07-11T01:18:13.774Z,40.08
2023-07-11T01:19:13.821Z,40.09
2023-07-11T01:20:13.872Z,40.11
2023-07-11T01:21:13.915Z,40.12
2023-07-11T01:22:13.971Z,40.10
2023-07-11T01:23:14.034Z,40.09
2023-07-11T01:24:14.083Z,40.11
2023-07-11T01:25:14.163Z,40.09
2023-07-11T01:26:14.189Z,40.10
2023-07-11T01:27:14.238Z,40.09
2023-07-11T01:28:14.561Z,40.09
2023-07-11T01:29:14.330Z,40.10
2023-07-11T01:30:14.378Z,40.08
2023-07-11T01:31:14.429Z,40.06
2023-07-11T01:32:14.482Z,40.09
2023-07-11T01:33:14.530Z,40.11
2023-07-11T01:34:14.572Z,40.11
2023-07-11T01:35:14.614Z,40.09
2023-07-11T01:36:14.663Z,40.09
2023-07-11T01:37:14.735Z,40.07
2023-07-11T01:38:14.754Z,40.10
2023-07-11T01:39:14.796Z,40.11
2023-07-11T01:40:14.858Z,40.09
2023-07-11T01:41:14.888Z,40.06
2023-07-11T01:42:14.941Z,40.09
2023-07-11T01:43:14.990Z,40.09
2023-07-11T01:44:15.053Z,40.09
2023-07-11T01:45:15.096Z,40.11
2023-07-11T01:46:15.170Z,40.12
2023-07-11T01:47:15.197Z,40.09
2023-07-11T01:48:15.268Z,40.10
2023-07-11T01:49:15.306Z,40.12
2023-07-11T01:50:15.369Z,40.08
2023-07-11T01:51:15.411Z,40.12
2023-07-11T01:52:15.467Z,40.06
2023-07-11T01:53:15.513Z,40.09
2023-07-11T01:54:15.556Z,40.05
2023-07-11T01:55:15.611Z,40.05
2023-07-11T01:56:15.659Z,40.08
2023-07-11T01:57:15.720Z,40.07
2023-07-11T01:58:15.765Z,40.07
2023-07-11T01:59:15.812Z,40.07
2023-07-11T02:00:15.867Z,40.07
2023-07-11T02:01:15.944Z,40.06
2023-07-11T02:02:15.981Z,40.07
2023-07-11T02:03:16.162Z,40.07
2023-07-11T02:04:16.075Z,40.08
2023-07-11T02:05:16.119Z,40.10
2023-07-11T02:06:16.125Z,40.11
2023-07-11T02:07:16.131Z,40.10
2023-07-11T02:08:16.127Z,40.10
2023-07-11T02:09:16.129Z,40.08
2023-07-11T02:10:16.136Z,40.09
2023-07-11T02:11:16.150Z,40.08
2023-07-11T02:12:16.149Z,40.08
2023-07-11T02:13:16.141Z,40.06
2023-07-11T02:14:16.192Z,40.05
2023-07-11T02:15:16.133Z,40.10
2023-07-11T02:16:16.216Z,40.07
2023-07-11T02:17:16.385Z,40.08
2023-07-11T02:18:16.179Z,40.13
2023-07-11T02:19:16.171Z,40.08
2023-07-11T02:20:16.225Z,40.08
2023-07-11T02:21:16.288Z,40.07
2023-07-11T02:22:16.322Z,40.07
2023-07-11T02:23:16.431Z,40.08
2023-07-11T02:24:16.417Z,40.05
2023-07-11T02:25:16.461Z,40.06
2023-07-11T02:26:16.507Z,40.06
2023-07-11T02:27:16.560Z,40.09
2023-07-11T02:28:16.611Z,40.06
2023-07-11T02:29:16.654Z,40.09
2023-07-11T02:30:16.709Z,40.06
2023-07-11T02:31:16.767Z,40.07
2023-07-11T02:32:16.791Z,40.07
2023-07-11T02:33:16.844Z,40.06
2023-07-11T02:34:16.890Z,40.05
2023-07-11T02:35:16.923Z,40.04
2023-07-11T02:36:16.990Z,40.05
2023-07-11T02:37:17.023Z,40.06
2023-07-11T02:38:17.077Z,40.06
2023-07-11T02:39:17.124Z,40.07
2023-07-11T02:40:17.173Z,40.05
2023-07-11T02:41:17.213Z,40.07
2023-07-11T02:42:17.266Z,40.06
2023-07-11T02:43:17.308Z,40.03
2023-07-11T02:44:17.353Z,40.04
2023-07-11T02:45:17.404Z,40.01
2023-07-11T02:46:17.500Z,40.00
2023-07-11T02:47:17.501Z,40.02
2023-07-11T02:48:17.542Z,40.02
2023-07-11T02:49:17.596Z,40.01
2023-07-11T02:50:17.649Z,40.03
2023-07-11T02:51:17.697Z,40.00
2023-07-11T02:52:17.768Z,39.99
2023-07-11T02:53:17.815Z,39.99
2023-07-11T02:54:17.864Z,40.02
2023-07-11T02:55:17.933Z,39.98
2023-07-11T02:56:17.971Z,39.98
2023-07-11T02:57:18.039Z,39.96
2023-07-11T02:58:18.088Z,39.97
2023-07-11T02:59:18.094Z,39.97
2023-07-11T03:00:18.090Z,39.96
2023-07-11T03:01:18.163Z,39.97
2023-07-11T03:02:18.105Z,39.98
2023-07-11T03:03:18.119Z,39.96
2023-07-11T03:04:18.121Z,39.96
2023-07-11T03:05:18.148Z,39.95
2023-07-11T03:06:18.103Z,39.98
2023-07-11T03:07:18.245Z,39.92
2023-07-11T03:08:18.121Z,39.82
2023-07-11T03:09:18.136Z,39.80
2023-07-11T03:10:18.128Z,39.84
2023-07-11T03:11:18.171Z,39.77
2023-07-11T03:12:18.237Z,39.75
2023-07-11T03:13:18.246Z,39.76
2023-07-11T03:14:18.295Z,39.78
2023-07-11T03:15:18.263Z,39.77
2023-07-11T03:16:18.267Z,39.82
2023-07-11T03:17:18.321Z,39.84
2023-07-11T03:18:18.285Z,39.87
2023-07-11T03:19:18.290Z,39.90
2023-07-11T03:20:18.292Z,39.92
2023-07-11T03:21:18.302Z,39.93
2023-07-11T03:22:18.320Z,40.05
2023-07-11T03:23:18.335Z,40.06
2023-07-11T03:24:18.336Z,40.15
2023-07-11T03:25:18.403Z,40.16
2023-07-11T03:26:18.475Z,40.22
2023-07-11T03:27:18.543Z,40.27
2023-07-11T03:28:18.610Z,40.28
2023-07-11T03:29:18.700Z,40.39
2023-07-11T03:30:18.752Z,40.37
2023-07-11T03:31:18.877Z,40.42
2023-07-11T03:32:18.891Z,40.49
2023-07-11T03:33:18.969Z,40.55
2023-07-11T03:34:19.046Z,40.50
2023-07-11T03:35:19.108Z,40.56
2023-07-11T03:36:19.129Z,40.64
2023-07-11T03:37:19.127Z,40.65
2023-07-11T03:38:19.164Z,40.72
2023-07-11T03:39:19.155Z,40.74
2023-07-11T03:40:19.145Z,40.76
2023-07-11T03:41:19.160Z,40.72
2023-07-11T03:42:19.196Z,40.74
2023-07-11T03:43:19.177Z,40.72
2023-07-11T03:44:19.191Z,40.73
2023-07-11T03:45:19.277Z,40.74
2023-07-11T03:46:19.391Z,40.75
2023-07-11T03:47:19.424Z,40.79
2023-07-11T03:48:19.499Z,40.82
2023-07-11T03:49:19.564Z,40.83
2023-07-11T03:50:19.640Z,40.83
2023-07-11T03:51:19.716Z,40.84
2023-07-11T03:52:19.797Z,40.89
2023-07-11T03:53:19.891Z,40.90
2023-07-11T03:54:19.877Z,40.93
2023-07-11T03:55:19.886Z,40.94
2023-07-11T03:56:19.885Z,40.93
2023-07-11T03:57:19.902Z,40.94
2023-07-11T03:58:19.910Z,40.96
2023-07-11T03:59:19.929Z,40.95
2023-07-11T04:00:19.928Z,40.93
2023-07-11T04:01:19.984Z,40.96
2023-07-11T04:02:19.993Z,40.99
2023-07-11T04:03:20.143Z,41.06
2023-07-11T04:04:20.155Z,41.09
2023-07-11T04:05:20.246Z,41.06
2023-07-11T04:06:20.293Z,41.09
2023-07-11T04:07:20.362Z,41.08
2023-07-11T04:08:20.425Z,41.09
2023-07-11T04:09:20.503Z,41.10
2023-07-11T04:10:20.571Z,41.13
2023-07-11T04:11:20.631Z,41.20
2023-07-11T04:12:20.713Z,41.22
2023-07-11T04:13:20.788Z,41.27
2023-07-11T04:14:20.840Z,41.25
2023-07-11T04:15:20.899Z,41.27
2023-07-11T04:16:20.954Z,41.26
2023-07-11T04:17:21.070Z,41.27
2023-07-11T04:18:21.149Z,41.30
2023-07-11T04:19:21.472Z,41.32
2023-07-11T04:20:21.187Z,41.32
2023-07-11T04:21:21.241Z,41.37
2023-07-11T04:22:21.337Z,41.42
2023-07-11T04:23:21.434Z,41.41
2023-07-11T04:24:21.512Z,41.45
2023-07-11T04:25:21.539Z,41.43
2023-07-11T04:26:21.542Z,41.42
2023-07-11T04:27:21.554Z,41.46
2023-07-11T04:28:21.580Z,41.51
2023-07-11T04:29:21.593Z,41.50
2023-07-11T04:30:21.614Z,41.48
2023-07-11T04:31:21.742Z,41.51
2023-07-11T04:32:21.677Z,41.53
2023-07-11T04:33:21.654Z,41.56
2023-07-11T04:34:21.672Z,41.60
2023-07-11T04:35:21.708Z,41.63
2023-07-11T04:36:21.704Z,41.63
2023-07-11T04:37:21.744Z,41.62
2023-07-11T04:38:21.746Z,41.65
2023-07-11T04:39:21.776Z,41.62
2023-07-11T04:40:21.804Z,41.67
2023-07-11T04:41:21.835Z,41.70
2023-07-11T04:42:21.877Z,41.76
2023-07-11T04:43:21.928Z,41.77
2023-07-11T04:44:21.983Z,41.81
2023-07-11T04:45:21.992Z,41.83
2023-07-11T04:46:22.101Z,41.84
2023-07-11T04:47:22.049Z,41.86
2023-07-11T04:48:22.066Z,41.85
2023-07-11T04:49:22.090Z,41.86
2023-07-11T04:50:22.135Z,41.90
2023-07-11T04:51:22.202Z,41.91
2023-07-11T04:52:22.213Z,41.89
2023-07-11T04:53:22.250Z,41.88
2023-07-11T04:54:22.405Z,41.94
2023-07-11T04:55:22.289Z,41.94
2023-07-11T04:56:22.322Z,41.98
2023-07-11T04:57:22.365Z,42.00
2023-07-11T04:58:22.418Z,42.02
2023-07-11T04:59:22.431Z,42.04
2023-07-11T05:00:22.443Z,42.07
2023-07-11T05:01:22.988Z,42.07
2023-07-11T05:02:22.598Z,42.07
2023-07-11T05:03:22.518Z,42.09
2023-07-11T05:04:22.745Z,42.13
2023-07-11T05:05:22.595Z,42.16
2023-07-11T05:06:22.599Z,42.18
2023-07-11T05:07:22.629Z,42.22
2023-07-11T05:08:22.654Z,42.24
2023-07-11T05:09:22.669Z,42.21
2023-07-11T05:10:22.687Z,42.24
2023-07-11T05:11:22.709Z,42.24
2023-07-11T05:12:22.743Z,42.24
2023-07-11T05:13:22.754Z,42.24
2023-07-11T05:14:22.779Z,42.25
2023-07-11T05:15:22.838Z,42.27
2023-07-11T05:16:22.978Z,42.25
2023-07-11T05:17:22.902Z,42.31
2023-07-11T05:18:22.866Z,42.35
2023-07-11T05:19:22.867Z,42.36
2023-07-11T05:20:22.894Z,42.41
2023-07-11T05:21:22.921Z,42.39
2023-07-11T05:22:22.939Z,42.41
2023-07-11T05:23:22.935Z,42.47
2023-07-11T05:24:22.949Z,42.44
2023-07-11T05:25:22.958Z,42.45
2023-07-11T05:26:22.967Z,42.50
2023-07-11T05:27:22.984Z,42.50
2023-07-11T05:28:22.998Z,42.52
2023-07-11T05:29:23.008Z,42.54
2023-07-11T05:30:23.017Z,42.53
2023-07-11T05:31:23.156Z,42.57
2023-07-11T05:32:23.076Z,42.54
2023-07-11T05:33:23.066Z,42.58
2023-07-11T05:34:23.082Z,42.57
2023-07-11T05:35:23.095Z,42.61
2023-07-11T05:36:23.104Z,42.59
2023-07-11T05:37:23.130Z,42.62
2023-07-11T05:38:23.138Z,42.63
2023-07-11T05:39:23.156Z,42.67
2023-07-11T05:40:24.956Z,42.67
2023-07-11T05:41:23.178Z,42.68
2023-07-11T05:42:23.195Z,42.68
2023-07-11T05:43:23.210Z,42.70
2023-07-11T05:44:23.216Z,42.74
2023-07-11T05:45:23.230Z,42.73
2023-07-11T05:46:23.293Z,42.78
2023-07-11T05:47:23.402Z,42.80
2023-07-11T05:48:23.272Z,42.83
2023-07-11T05:49:23.292Z,42.85
2023-07-11T05:50:23.309Z,42.87
2023-07-11T05:51:23.330Z,42.90
2023-07-11T05:52:23.330Z,42.94
2023-07-11T05:53:23.355Z,42.95
2023-07-11T05:54:23.353Z,43.01
2023-07-11T05:55:23.370Z,43.01
2023-07-11T05:56:23.383Z,43.03
2023-07-11T05:57:23.415Z,43.02
2023-07-11T05:58:23.417Z,43.06
2023-07-11T05:59:23.432Z,43.06
2023-07-11T06:00:23.448Z,43.10
2023-07-11T06:01:23.483Z,43.11
2023-07-11T06:02:23.496Z,43.06
2023-07-11T06:03:23.523Z,43.02
2023-07-11T06:04:23.520Z,42.99
2023-07-11T06:05:23.525Z,42.95
2023-07-11T06:06:23.530Z,42.90
2023-07-11T06:07:23.547Z,42.86
2023-07-11T06:08:23.563Z,42.78
2023-07-11T06:09:23.580Z,42.69
2023-07-11T06:10:23.584Z,42.63
2023-07-11T06:11:23.604Z,42.55
2023-07-11T06:12:23.607Z,42.55
2023-07-11T06:13:23.640Z,42.49
2023-07-11T06:14:23.685Z,42.46
2023-07-11T06:15:23.651Z,42.42
2023-07-11T06:16:23.686Z,42.38
2023-07-11T06:17:23.688Z,42.31
2023-07-11T06:18:23.731Z,42.25
2023-07-11T06:19:23.766Z,42.21
2023-07-11T06:20:23.789Z,42.18
2023-07-11T06:21:23.820Z,42.23
2023-07-11T06:22:23.891Z,42.21
2023-07-11T06:23:23.961Z,42.26
2023-07-11T06:24:24.000Z,42.20
2023-07-11T06:25:24.071Z,42.22
2023-07-11T06:26:24.142Z,42.17
2023-07-11T06:27:24.210Z,42.16
2023-07-11T06:28:24.266Z,42.14
2023-07-11T06:29:24.338Z,42.13
2023-07-11T06:30:24.410Z,42.10
2023-07-11T06:31:24.535Z,42.08
2023-07-11T06:32:24.582Z,42.05
2023-07-11T06:33:24.660Z,42.13
2023-07-11T06:34:24.731Z,42.20
2023-07-11T06:35:24.811Z,42.19
2023-07-11T06:36:24.893Z,42.19
2023-07-11T06:37:24.974Z,42.24
2023-07-11T06:38:25.052Z,42.23
2023-07-11T06:39:25.128Z,42.24
2023-07-11T06:40:25.189Z,42.52
2023-07-11T06:41:25.284Z,42.65
2023-07-11T06:42:25.353Z,42.78
2023-07-11T06:43:25.439Z,42.91
2023-07-11T06:44:25.499Z,42.98
2023-07-11T06:45:25.598Z,43.08
2023-07-11T06:46:25.678Z,43.16
2023-07-11T06:47:25.780Z,43.24
2023-07-11T06:48:25.798Z,43.23
2023-07-11T06:49:25.876Z,43.28
2023-07-11T06:50:26.417Z,43.42
2023-07-11T06:51:26.014Z,43.71
2023-07-11T06:52:26.065Z,43.69
2023-07-11T06:53:26.138Z,43.82
2023-07-11T06:54:26.201Z,43.97
2023-07-11T06:55:26.278Z,43.99
2023-07-11T06:56:26.366Z,44.01
2023-07-11T06:57:26.432Z,43.99
2023-07-11T06:58:26.501Z,44.00
2023-07-11T06:59:26.565Z,43.91
2023-07-11T07:00:26.640Z,43.86
2023-07-11T07:01:36.768Z,43.82
2023-07-11T07:02:27.771Z,43.86
2023-07-11T07:03:26.802Z,43.97
2023-07-11T07:04:26.734Z,43.77
2023-07-11T07:05:26.717Z,43.76
2023-07-11T07:06:26.731Z,43.69
2023-07-11T07:07:26.712Z,43.73
2023-07-11T07:08:26.734Z,43.69
2023-07-11T07:09:27.829Z,43.37
2023-07-11T07:10:26.722Z,43.83
2023-07-11T07:11:26.786Z,44.52
2023-07-11T07:12:26.800Z,46.61
2023-07-11T07:13:26.850Z,46.27
2023-07-11T07:14:26.956Z,47.29
2023-07-11T07:15:26.963Z,49.79
2023-07-11T07:16:27.051Z,49.40
2023-07-11T07:17:27.109Z,50.51
2023-07-11T07:18:27.133Z,50.81
2023-07-11T07:19:27.197Z,48.96
2023-07-11T07:20:27.255Z,48.29
2023-07-11T07:21:27.308Z,47.89
2023-07-11T07:22:27.387Z,48.17
2023-07-11T07:23:27.785Z,48.82
2023-07-11T07:24:27.478Z,48.90
2023-07-11T07:25:27.580Z,48.99
2023-07-11T07:26:27.616Z,48.47
2023-07-11T07:27:29.197Z,48.64
2023-07-11T07:28:27.751Z,47.95
2023-07-11T07:29:27.763Z,47.80
2023-07-11T07:30:27.828Z,47.30
2023-07-11T07:31:27.920Z,47.19
2023-07-11T07:32:27.998Z,47.17
2023-07-11T07:33:27.959Z,47.13
2023-07-11T07:34:29.999Z,47.05
2023-07-11T07:35:27.923Z,47.01
2023-07-11T07:36:27.937Z,46.86
2023-07-11T07:37:27.933Z,46.79
2023-07-11T07:38:27.942Z,46.77
2023-07-11T07:39:27.935Z,46.72
2023-07-11T07:40:27.944Z,46.69
2023-07-11T07:41:27.951Z,46.53
2023-07-11T07:42:28.014Z,46.45
2023-07-11T07:43:28.112Z,46.28
2023-07-11T07:44:28.117Z,46.21
2023-07-11T07:45:28.166Z,46.20
2023-07-11T07:46:28.236Z,45.99
2023-07-11T07:47:28.292Z,45.78
2023-07-11T07:48:28.334Z,45.74
2023-07-11T07:49:29.521Z,45.64
2023-07-11T07:50:28.346Z,45.57
2023-07-11T07:51:28.337Z,45.45
2023-07-11T07:52:28.338Z,45.43
2023-07-11T07:53:28.333Z,45.39
2023-07-11T07:54:28.316Z,45.26
2023-07-11T07:55:28.316Z,45.25
2023-07-11T07:56:28.319Z,45.25
2023-07-11T07:57:28.321Z,45.06
2023-07-11T07:58:42.208Z,45.04
2023-07-11T07:59:29.309Z,45.02
2023-07-11T08:00:28.308Z,44.88
2023-07-11T08:01:28.295Z,44.83
2023-07-11T08:02:28.650Z,44.77
2023-07-11T08:03:28.362Z,44.66
2023-07-11T08:04:28.291Z,44.62
2023-07-11T08:05:28.258Z,44.58
2023-07-11T08:06:28.284Z,44.52
2023-07-11T08:07:28.247Z,44.48
2023-07-11T08:08:28.267Z,44.41
2023-07-11T08:09:28.254Z,44.38
2023-07-11T08:10:28.232Z,44.31
2023-07-11T08:11:28.212Z,44.32
2023-07-11T08:12:28.210Z,44.24
2023-07-11T08:13:30.131Z,44.16
2023-07-11T08:14:28.246Z,44.08
2023-07-11T08:15:28.198Z,44.02
2023-07-11T08:16:31.748Z,43.98
2023-07-11T08:17:29.339Z,43.99
2023-07-11T08:18:28.188Z,43.94
2023-07-11T08:19:28.180Z,43.89
2023-07-11T08:20:28.178Z,43.89
2023-07-11T08:21:28.217Z,43.85
2023-07-11T08:22:28.171Z,43.82
2023-07-11T08:23:28.168Z,43.78
2023-07-11T08:24:28.170Z,43.76
2023-07-11T08:25:28.163Z,43.77
2023-07-11T08:26:28.168Z,43.95
2023-07-11T08:27:28.169Z,44.08
2023-07-11T08:28:28.159Z,43.97
2023-07-11T08:29:30.251Z,43.87
2023-07-11T08:30:28.177Z,43.78
2023-07-11T08:31:28.183Z,43.67
2023-07-11T08:32:28.171Z,43.66
2023-07-11T08:33:28.124Z,43.66
2023-07-11T08:34:28.111Z,43.69
2023-07-11T08:35:28.080Z,43.63
2023-07-11T08:36:28.076Z,43.50
2023-07-11T08:37:28.070Z,43.42
2023-07-11T08:38:28.051Z,43.47
2023-07-11T08:39:28.027Z,43.47
2023-07-11T08:40:41.989Z,43.47
2023-07-11T08:41:29.011Z,43.45
2023-07-11T08:42:28.011Z,43.45
2023-07-11T08:43:28.010Z,43.37
2023-07-11T08:44:27.983Z,43.41
2023-07-11T08:45:27.959Z,43.38
2023-07-11T08:46:27.987Z,43.39
2023-07-11T08:47:27.976Z,43.40
2023-07-11T08:48:27.924Z,43.37
2023-07-11T08:49:27.893Z,43.32
2023-07-11T08:50:27.886Z,43.36
2023-07-11T08:51:27.883Z,43.41
2023-07-11T08:52:27.840Z,43.47
2023-07-11T08:53:27.826Z,43.47
2023-07-11T08:54:27.834Z,43.45
2023-07-11T08:55:27.804Z,43.46
2023-07-11T08:56:27.781Z,43.55
2023-07-11T08:57:27.778Z,43.51
2023-07-11T08:58:27.752Z,43.57
2023-07-11T08:59:27.742Z,43.58
2023-07-11T09:00:27.727Z,43.58
2023-07-11T09:01:27.714Z,43.54
2023-07-11T09:02:27.760Z,43.49
2023-07-11T09:03:27.839Z,43.43
2023-07-11T09:04:27.677Z,43.37
2023-07-11T09:05:27.672Z,43.45
2023-07-11T09:06:27.645Z,43.46
2023-07-11T09:07:27.641Z,43.32
2023-07-11T09:08:27.629Z,43.22
2023-07-11T09:09:27.626Z,43.26
2023-07-11T09:10:42.356Z,43.29
2023-07-11T09:11:28.602Z,43.29
2023-07-11T09:12:27.579Z,43.11
2023-07-11T09:13:27.755Z,43.01
2023-07-11T09:14:27.579Z,42.92
2023-07-11T09:15:27.566Z,42.88
2023-07-11T09:16:27.576Z,42.83
2023-07-11T09:17:27.574Z,42.79
2023-07-11T09:18:27.530Z,42.67
2023-07-11T09:19:27.514Z,42.65
2023-07-11T09:20:27.494Z,42.52
2023-07-11T09:21:27.492Z,42.50
2023-07-11T09:22:27.630Z,42.45
2023-07-11T09:23:38.025Z,42.46
2023-07-11T09:24:28.466Z,42.46
2023-07-11T09:25:28.293Z,42.34
2023-07-11T09:26:27.469Z,42.21
2023-07-11T09:27:27.429Z,42.09
2023-07-11T09:28:27.400Z,42.11
2023-07-11T09:29:27.397Z,42.19
2023-07-11T09:30:27.376Z,42.16
2023-07-11T09:31:27.429Z,42.06
2023-07-11T09:32:27.440Z,42.00
2023-07-11T09:33:27.393Z,42.01
2023-07-11T09:34:27.314Z,42.60
2023-07-11T09:35:27.335Z,42.06
2023-07-11T09:36:27.279Z,41.92
2023-07-11T09:37:27.270Z,42.44
2023-07-11T09:38:27.257Z,42.40
2023-07-11T09:39:27.253Z,42.48
2023-07-11T09:40:27.255Z,42.65
2023-07-11T09:41:37.423Z,42.73
2023-07-11T09:42:28.209Z,42.73
2023-07-11T09:43:27.219Z,42.66
2023-07-11T09:44:27.189Z,42.37
2023-07-11T09:45:27.210Z,42.44
2023-07-11T09:46:27.230Z,42.53
2023-07-11T09:47:27.242Z,42.56
2023-07-11T09:48:27.162Z,42.47
2023-07-11T09:49:27.130Z,42.36
2023-07-11T09:50:39.283Z,42.14
2023-07-11T09:51:28.117Z,42.04
2023-07-11T09:52:27.096Z,41.88
2023-07-11T09:53:27.078Z,41.62
2023-07-11T09:54:27.097Z,41.68
2023-07-11T09:55:27.064Z,41.64
2023-07-11T09:56:27.038Z,41.27
2023-07-11T09:57:27.036Z,41.25
2023-07-11T09:58:27.023Z,41.28
2023-07-11T09:59:27.897Z,40.98
2023-07-11T10:00:27.046Z,40.75
2023-07-11T10:01:27.030Z,40.85
2023-07-11T10:02:27.027Z,40.72
2023-07-11T10:03:26.960Z,40.80
2023-07-11T10:04:26.984Z,40.58
2023-07-11T10:05:26.943Z,40.66
2023-07-11T10:06:38.872Z,40.38
2023-07-11T10:07:27.905Z,40.12
2023-07-11T10:08:26.898Z,40.23
2023-07-11T10:09:26.889Z,40.29
2023-07-11T10:10:26.899Z,40.34
2023-07-11T10:11:26.872Z,40.34
2023-07-11T10:12:26.863Z,40.27
2023-07-11T10:13:37.893Z,40.24
2023-07-11T10:14:27.978Z,40.23
2023-07-11T10:15:26.832Z,40.12
2023-07-11T10:16:26.806Z,40.07
2023-07-11T10:17:26.952Z,39.99
2023-07-11T10:18:26.806Z,39.97
2023-07-11T10:19:26.742Z,39.95
2023-07-11T10:20:26.737Z,39.99
2023-07-11T10:21:31.914Z,40.10
2023-07-11T10:22:27.895Z,40.29
2023-07-11T10:23:26.668Z,40.36
2023-07-11T10:24:26.679Z,40.39
2023-07-11T10:25:26.647Z,40.36
2023-07-11T10:26:26.668Z,40.40
2023-07-11T10:27:26.618Z,40.43
2023-07-11T10:28:26.607Z,40.45
2023-07-11T10:29:26.609Z,40.48
2023-07-11T10:30:26.595Z,40.49
2023-07-11T10:31:26.641Z,40.51
2023-07-11T10:32:26.595Z,40.52
2023-07-11T10:33:30.878Z,40.49
2023-07-11T10:34:27.547Z,40.52
2023-07-11T10:35:26.522Z,40.53
2023-07-11T10:36:26.523Z,40.53
2023-07-11T10:37:26.524Z,40.54
2023-07-11T10:38:26.487Z,40.50
2023-07-11T10:39:26.477Z,40.53
2023-07-11T10:40:27.928Z,40.50
2023-07-11T10:41:26.446Z,40.51
2023-07-11T10:42:26.426Z,40.50
2023-07-11T10:43:26.432Z,40.49
2023-07-11T10:44:26.397Z,40.53
2023-07-11T10:45:26.390Z,40.56
2023-07-11T10:46:26.409Z,40.57
2023-07-11T10:47:26.396Z,40.58
2023-07-11T10:48:26.343Z,40.57
2023-07-11T10:49:26.341Z,40.55
2023-07-11T10:50:26.312Z,40.55
2023-07-11T10:51:27.646Z,40.57
2023-07-11T10:52:26.259Z,40.53
2023-07-11T10:53:26.243Z,40.54
2023-07-11T10:54:26.233Z,40.59
2023-07-11T10:55:26.224Z,40.58
2023-07-11T10:56:26.185Z,40.59
2023-07-11T10:57:33.934Z,40.60
2023-07-11T10:58:27.157Z,40.61
2023-07-11T10:59:26.138Z,40.61
2023-07-11T11:00:26.122Z,40.59
2023-07-11T11:01:26.156Z,40.58
2023-07-11T11:02:26.161Z,40.58
2023-07-11T11:03:27.509Z,40.54
2023-07-11T11:04:26.075Z,40.51
2023-07-11T11:05:26.075Z,40.54
2023-07-11T11:06:27.509Z,40.49
2023-07-11T11:07:25.991Z,40.51
2023-07-11T11:08:25.966Z,40.50
2023-07-11T11:09:25.970Z,40.51
2023-07-11T11:10:25.931Z,40.49
2023-07-11T11:11:25.912Z,40.49
2023-07-11T11:12:25.904Z,40.47
2023-07-11T11:13:27.198Z,40.45
2023-07-11T11:14:25.880Z,40.44
2023-07-11T11:15:25.848Z,40.45
2023-07-11T11:17:25.853Z,40.43
2023-07-11T11:18:25.864Z,40.41
2023-07-11T11:19:25.851Z,40.42
2023-07-11T11:20:25.770Z,40.40
2023-07-11T11:21:27.878Z,40.40
2023-07-11T11:22:25.722Z,40.36
2023-07-11T11:23:25.718Z,40.38
2023-07-11T11:24:25.689Z,40.39
2023-07-11T11:25:27.991Z,40.36
2023-07-11T11:26:26.650Z,40.34
2023-07-11T11:27:25.635Z,40.35
2023-07-11T11:28:25.623Z,40.30
2023-07-11T11:29:25.601Z,40.30
2023-07-11T11:30:25.737Z,40.29
2023-07-11T11:31:25.713Z,40.29
2023-07-11T11:32:25.550Z,40.29
2023-07-11T11:33:25.533Z,40.25
2023-07-11T11:34:25.499Z,40.25
2023-07-11T11:35:25.480Z,40.26
2023-07-11T11:36:25.473Z,40.26
2023-07-11T11:37:25.448Z,40.23
2023-07-11T11:38:25.452Z,40.22
2023-07-11T11:39:25.518Z,40.21
2023-07-11T11:40:25.545Z,40.19
2023-07-11T11:41:25.558Z,40.13
2023-07-11T11:42:25.548Z,40.16
2023-07-11T11:43:29.304Z,40.14
2023-07-11T11:46:28.339Z,40.10
2023-07-11T11:49:41.622Z,40.10
2023-07-11T11:50:55.866Z,40.10
2023-07-11T11:51:26.378Z,40.11
2023-07-11T11:53:25.267Z,40.11
2023-07-11T11:54:25.238Z,40.14
2023-07-11T11:55:25.234Z,40.14
2023-07-11T11:56:25.570Z,40.08
2023-07-11T11:57:25.179Z,40.07
2023-07-11T11:58:25.369Z,40.06
2023-07-11T11:59:25.142Z,40.04
2023-07-11T12:00:25.107Z,40.04
2023-07-11T12:01:25.101Z,40.00
2023-07-11T12:02:25.138Z,40.02
2023-07-11T12:03:25.038Z,40.06
2023-07-11T12:04:25.158Z,40.03
2023-07-11T12:05:25.009Z,40.07
2023-07-11T12:06:24.971Z,40.07
2023-07-11T12:07:24.951Z,40.06
2023-07-11T12:08:24.937Z,40.07
2023-07-11T12:09:24.911Z,40.16
2023-07-11T12:10:24.891Z,40.25
2023-07-11T12:11:24.877Z,40.41
2023-07-11T12:12:24.845Z,40.37
2023-07-11T12:13:24.827Z,40.32
2023-07-11T12:14:24.834Z,40.29
2023-07-11T12:15:24.807Z,40.17
2023-07-11T12:16:39.944Z,40.07
2023-07-11T12:17:25.956Z,39.96
2023-07-11T12:18:24.802Z,39.89
2023-07-11T12:19:24.792Z,39.85
2023-07-11T12:20:24.762Z,39.72
2023-07-11T12:21:24.771Z,39.70
2023-07-11T12:22:24.726Z,39.59
2023-07-11T12:23:38.806Z,39.55
2023-07-11T12:24:42.265Z,39.57
2023-07-11T12:25:25.686Z,39.55
2023-07-11T12:26:24.656Z,39.54
2023-07-11T12:27:24.680Z,39.52
2023-07-11T12:28:24.637Z,39.48
2023-07-11T12:29:24.607Z,39.41
2023-07-11T12:30:24.572Z,39.38
2023-07-11T12:31:24.582Z,39.37
2023-07-11T12:32:24.527Z,39.35
2023-07-11T12:33:24.593Z,39.36
2023-07-11T12:34:24.483Z,39.33
2023-07-11T12:35:24.443Z,39.28
2023-07-11T12:36:24.484Z,39.24
2023-07-11T12:37:24.448Z,39.26
2023-07-11T12:38:24.441Z,39.29
2023-07-11T12:39:24.348Z,39.24
2023-07-11T12:40:24.309Z,39.29
2023-07-11T12:41:34.927Z,39.31
2023-07-11T12:42:25.267Z,39.36
2023-07-11T12:43:24.238Z,39.38
2023-07-11T12:44:24.227Z,39.35
2023-07-11T12:45:24.199Z,39.39
2023-07-11T12:46:24.209Z,39.46
2023-07-11T12:47:24.183Z,39.47
2023-07-11T12:48:24.100Z,39.53
2023-07-11T12:49:24.105Z,39.54
2023-07-11T12:50:24.063Z,39.61
2023-07-11T12:51:24.034Z,39.62
2023-07-11T12:52:24.011Z,39.63
2023-07-11T12:53:23.972Z,39.65
2023-07-11T12:54:23.944Z,39.69
2023-07-11T12:55:23.928Z,39.69
2023-07-11T12:56:23.906Z,39.69
2023-07-11T12:57:23.864Z,39.69
2023-07-11T12:58:23.830Z,39.68